Time;durP1;ratioP1;P1;durP2;ratioP2;P2;SDS_P1;SDS_P2;PMS_P1;PMS_P2;Temp;Humidity;BMP_temperature;BMP_pressure;BME280_temperature;BME280_humidity;BME280_pressure;Samples;Min_cycle;Max_cycle;Signal;HPM_P1;HPM_P2
2021/07/01 00:00:44;;;;;;;16.77;12.07;;;16.10;96.70;;;;;;4993114;28;20031;-74
2021/07/01 00:03:10;;;;;;;14.40;10.77;;;16.10;96.80;;;;;;4979306;28;20046;-74
2021/07/01 00:05:35;;;;;;;13.35;10.43;;;16.00;96.80;;;;;;4977406;28;20371;-74
2021/07/01 00:08:01;;;;;;;12.68;9.57;;;16.00;96.90;;;;;;4975526;28;20022;-74
2021/07/01 00:10:27;;;;;;;14.55;10.75;;;16.00;96.90;;;;;;4975987;28;20033;-75
2021/07/01 00:12:54;;;;;;;12.18;9.68;;;16.00;96.90;;;;;;4979440;28;20021;-74
2021/07/01 00:15:22;;;;;;;19.52;11.02;;;15.90;96.90;;;;;;4979668;28;20623;-75
2021/07/01 00:17:48;;;;;;;18.75;9.02;;;15.90;96.80;;;;;;4979129;28;20038;-75
2021/07/01 00:20:14;;;;;;;15.55;10.18;;;15.90;96.90;;;;;;4978126;28;20118;-74
2021/07/01 00:22:40;;;;;;;13.25;10.38;;;15.90;96.70;;;;;;4981275;28;20468;-75
2021/07/01 00:25:08;;;;;;;15.23;10.07;;;15.90;96.60;;;;;;4981992;28;20039;-74
2021/07/01 00:27:34;;;;;;;13.13;10.20;;;15.90;96.70;;;;;;4982498;28;20030;-74
2021/07/01 00:30:00;;;;;;;14.90;11.15;;;15.90;96.70;;;;;;4981801;28;20147;-74
2021/07/01 00:32:26;;;;;;;16.45;10.82;;;15.80;96.60;;;;;;5011468;22;20050;-80
2021/07/01 00:34:51;;;;;;;15.23;10.68;;;15.80;96.80;;;;;;5011208;28;20504;-78
2021/07/01 00:37:17;;;;;;;17.70;11.48;;;15.70;96.90;;;;;;5009737;28;20449;-80
2021/07/01 00:39:42;;;;;;;15.77;12.00;;;15.70;97.00;;;;;;5008432;28;20459;-79
2021/07/01 00:42:08;;;;;;;20.10;12.27;;;15.70;97.10;;;;;;5009418;28;20347;-80
2021/07/01 00:44:33;;;;;;;18.50;12.13;;;15.60;97.30;;;;;;5008206;28;20029;-80
2021/07/01 00:46:59;;;;;;;17.60;11.60;;;15.50;97.40;;;;;;5009054;28;20072;-79
2021/07/01 00:49:24;;;;;;;21.60;13.07;;;15.50;97.50;;;;;;5007292;28;20289;-80
2021/07/01 00:51:51;;;;;;;20.38;12.70;;;15.50;97.70;;;;;;5007336;28;20045;-80
2021/07/01 00:54:17;;;;;;;23.25;13.25;;;15.40;97.70;;;;;;5007832;28;20112;-80
2021/07/01 00:56:43;;;;;;;20.65;12.18;;;15.30;97.90;;;;;;5007613;28;20025;-80
2021/07/01 00:59:09;;;;;;;22.10;13.32;;;15.30;98.00;;;;;;5006804;28;20381;-80
2021/07/01 01:01:35;;;;;;;17.85;12.82;;;15.30;98.10;;;;;;5008208;28;20033;-80
2021/07/01 01:04:01;;;;;;;18.60;13.05;;;15.30;98.20;;;;;;5009127;28;20088;-80
2021/07/01 01:06:26;;;;;;;17.50;11.80;;;15.30;98.20;;;;;;5009286;28;20448;-80
2021/07/01 01:08:53;;;;;;;18.30;12.68;;;15.30;98.30;;;;;;5000379;28;20026;-80
2021/07/01 01:11:23;;;;;;;21.25;10.90;;;15.30;98.40;;;;;;5008987;28;20030;-80
2021/07/01 01:13:51;;;;;;;23.83;12.65;;;15.30;98.30;;;;;;5009145;28;20072;-80
2021/07/01 01:16:17;;;;;;;13.70;10.40;;;15.30;98.40;;;;;;5006682;28;20061;-80
2021/07/01 01:18:42;;;;;;;13.60;9.82;;;15.30;98.50;;;;;;5006991;28;20460;-81
2021/07/01 01:21:12;;;;;;;14.23;10.52;;;15.30;98.50;;;;;;5007921;28;20041;-80
2021/07/01 01:23:38;;;;;;;14.38;9.60;;;15.30;98.40;;;;;;5009821;28;20022;-80
2021/07/01 01:26:04;;;;;;;12.77;9.27;;;15.30;98.40;;;;;;5008097;28;20495;-80
2021/07/01 01:28:30;;;;;;;11.95;8.70;;;15.30;98.30;;;;;;5008191;28;20029;-80
2021/07/01 01:30:56;;;;;;;14.40;10.00;;;15.20;98.20;;;;;;5004479;28;20109;-80
2021/07/01 01:33:22;;;;;;;11.52;8.57;;;15.20;98.30;;;;;;5007263;28;20044;-80
2021/07/01 01:35:48;;;;;;;9.65;8.07;;;15.20;98.30;;;;;;5009369;28;20919;-80
2021/07/01 01:38:16;;;;;;;11.93;8.40;;;15.20;98.10;;;;;;5007081;28;20033;-80
2021/07/01 01:40:44;;;;;;;8.02;6.50;;;15.10;98.00;;;;;;5001242;28;20547;-80
2021/07/01 01:43:10;;;;;;;6.80;5.82;;;15.00;98.00;;;;;;5008770;28;20029;-80
2021/07/01 01:45:39;;;;;;;6.28;5.22;;;15.00;98.10;;;;;;5004733;28;20029;-80
2021/07/01 01:48:05;;;;;;;10.40;5.97;;;15.00;98.10;;;;;;5006412;28;20121;-80
2021/07/01 01:50:31;;;;;;;6.90;5.03;;;15.00;98.10;;;;;;5008030;28;20326;-80
2021/07/01 01:52:56;;;;;;;20.17;6.60;;;15.00;98.20;;;;;;5007523;28;20026;-80
2021/07/01 01:55:22;;;;;;;8.27;5.95;;;15.00;98.30;;;;;;5009187;28;20040;-80
2021/07/01 01:57:49;;;;;;;9.98;6.78;;;15.00;98.30;;;;;;5003784;28;20057;-80
2021/07/01 02:00:17;;;;;;;11.43;6.22;;;15.00;98.30;;;;;;5004808;28;20083;-80
2021/07/01 02:02:43;;;;;;;7.13;5.53;;;15.00;98.60;;;;;;5008764;28;20030;-80
2021/07/01 02:05:10;;;;;;;10.07;5.95;;;15.00;98.30;;;;;;5007535;28;20033;-80
2021/07/01 02:07:36;;;;;;;8.23;6.15;;;15.00;98.10;;;;;;5009673;28;20022;-80
2021/07/01 02:10:14;;;;;;;9.63;5.03;;;15.00;98.00;;;;;;5007250;28;20436;-80
2021/07/01 02:12:39;;;;;;;5.35;4.78;;;15.00;98.00;;;;;;5010284;28;20026;-80
2021/07/01 02:15:10;;;;;;;4.85;4.35;;;15.00;97.80;;;;;;5001734;28;20048;-80
2021/07/01 02:17:37;;;;;;;6.95;4.15;;;14.90;97.90;;;;;;5009035;28;20037;-80
2021/07/01 02:20:08;;;;;;;5.22;4.47;;;14.90;97.90;;;;;;5006313;28;20112;-80
2021/07/01 02:22:33;;;;;;;4.82;3.83;;;14.80;97.90;;;;;;5000103;28;20370;-80
2021/07/01 02:24:59;;;;;;;5.13;3.58;;;14.80;97.90;;;;;;5008219;28;20028;-80
2021/07/01 02:27:25;;;;;;;10.82;3.88;;;14.70;98.00;;;;;;5007142;28;20034;-80
2021/07/01 02:29:50;;;;;;;6.85;4.05;;;14.60;97.90;;;;;;5006726;28;20092;-80
2021/07/01 02:32:16;;;;;;;8.95;3.97;;;14.60;98.00;;;;;;5005727;28;20065;-80
2021/07/01 02:34:42;;;;;;;;;;;14.50;98.10;;;;;;5007722;28;20103;-80
2021/07/01 02:37:08;;;;;;;6.97;4.13;;;14.50;98.10;;;;;;5007157;28;20012;-80
2021/07/01 02:39:34;;;;;;;6.10;4.15;;;14.50;98.00;;;;;;5006053;28;20029;-80
2021/07/01 02:42:00;;;;;;;6.05;4.80;;;14.50;98.10;;;;;;5007083;28;20496;-80
2021/07/01 02:44:26;;;;;;;10.32;4.70;;;14.50;98.20;;;;;;5008269;28;20037;-80
2021/07/01 02:46:51;;;;;;;;;;;14.40;98.10;;;;;;5003950;28;20120;-80
2021/07/01 02:49:16;;;;;;;5.05;3.78;;;14.40;98.20;;;;;;5005446;28;19920;-80
2021/07/01 02:51:42;;;;;;;6.03;4.20;;;14.30;98.20;;;;;;5006870;28;20029;-80
2021/07/01 02:54:07;;;;;;;4.20;3.80;;;14.30;98.30;;;;;;5006810;28;20057;-80
2021/07/01 02:56:42;;;;;;;5.20;4.70;;;14.30;98.20;;;;;;5021871;28;20063;-80
2021/07/01 02:59:08;;;;;;;7.00;4.88;;;14.30;98.20;;;;;;5006743;28;20041;-80
2021/07/01 03:01:34;;;;;;;5.93;3.95;;;14.30;98.20;;;;;;5004862;28;20390;-80
2021/07/01 03:03:59;;;;;;;5.38;4.50;;;14.30;98.20;;;;;;5005020;28;20033;-80
2021/07/01 03:06:25;;;;;;;6.63;4.57;;;14.30;98.20;;;;;;5003511;28;20037;-80
2021/07/01 03:08:50;;;;;;;8.57;5.10;;;14.30;98.10;;;;;;5008026;28;20554;-80
2021/07/01 03:11:16;;;;;;;6.15;4.10;;;14.30;98.20;;;;;;5006849;28;20030;-80
2021/07/01 03:13:41;;;;;;;;;;;14.30;98.20;;;;;;5008139;28;20524;-80
2021/07/01 03:16:07;;;;;;;8.40;4.72;;;14.30;98.20;;;;;;5008302;28;20308;-80
2021/07/01 03:18:32;;;;;;;5.25;4.28;;;14.20;98.30;;;;;;5004262;28;20378;-80
2021/07/01 03:20:58;;;;;;;;;;;14.20;98.30;;;;;;5004158;28;20038;-80
2021/07/01 03:23:23;;;;;;;5.70;3.83;;;14.20;98.40;;;;;;5006844;28;19969;-80
2021/07/01 03:25:49;;;;;;;8.18;5.70;;;14.20;98.50;;;;;;5005691;28;20030;-80
2021/07/01 03:28:14;;;;;;;6.05;4.68;;;14.20;98.50;;;;;;5006057;28;20045;-80
2021/07/01 03:30:40;;;;;;;7.15;4.57;;;14.20;98.50;;;;;;5005391;28;20432;-79
2021/07/01 03:33:05;;;;;;;6.43;4.78;;;14.10;98.50;;;;;;5007236;28;20093;-80
2021/07/01 03:35:31;;;;;;;6.95;4.60;;;14.20;98.60;;;;;;5004251;28;20053;-79
2021/07/01 03:37:56;;;;;;;;;;;14.10;98.70;;;;;;5006069;28;20029;-79
2021/07/01 03:40:22;;;;;;;5.90;4.97;;;14.20;98.70;;;;;;5001404;28;19913;-80
2021/07/01 03:42:47;;;;;;;6.55;4.70;;;14.20;98.70;;;;;;5006654;28;20109;-80
2021/07/01 03:45:13;;;;;;;6.25;4.60;;;14.20;98.70;;;;;;5007796;28;20053;-79
2021/07/01 03:47:38;;;;;;;6.20;3.55;;;14.20;98.60;;;;;;5003259;28;20140;-80
2021/07/01 03:50:04;;;;;;;7.53;5.32;;;14.20;98.50;;;;;;5005454;28;20045;-79
2021/07/01 03:52:30;;;;;;;9.23;6.35;;;14.20;98.60;;;;;;5005415;28;20018;-80
2021/07/01 03:54:55;;;;;;;5.78;4.15;;;14.20;98.60;;;;;;5002988;28;20554;-79
2021/07/01 03:57:21;;;;;;;5.72;4.30;;;14.10;98.70;;;;;;5004862;28;20541;-78
2021/07/01 03:59:46;;;;;;;6.25;4.72;;;14.10;98.70;;;;;;5009608;28;20056;-78
2021/07/01 04:02:12;;;;;;;;;;;14.10;98.60;;;;;;5009066;28;20446;-78
2021/07/01 04:04:37;;;;;;;5.88;5.18;;;14.10;98.50;;;;;;5004762;28;19971;-79
2021/07/01 04:07:04;;;;;;;9.50;4.88;;;14.10;98.60;;;;;;5008898;28;20097;-79
2021/07/01 04:09:30;;;;;;;6.28;4.43;;;14.10;98.70;;;;;;5008577;28;20022;-79
2021/07/01 04:11:55;;;;;;;5.25;4.75;;;14.00;98.90;;;;;;5009232;28;20305;-79
2021/07/01 04:14:20;;;;;;;;;;;14.10;98.70;;;;;;5012599;28;20080;-79
2021/07/01 04:16:46;;;;;;;6.80;4.45;;;14.00;98.70;;;;;;5008600;28;19910;-79
2021/07/01 04:19:13;;;;;;;7.55;4.35;;;14.00;98.70;;;;;;5010977;28;20064;-79
2021/07/01 04:21:38;;;;;;;6.25;4.85;;;14.00;98.70;;;;;;5010260;28;20069;-79
2021/07/01 04:24:04;;;;;;;4.82;4.32;;;14.00;98.80;;;;;;5008776;28;20401;-79
2021/07/01 04:26:31;;;;;;;4.38;3.95;;;14.10;98.70;;;;;;5005286;28;20034;-79
2021/07/01 04:28:57;;;;;;;5.25;4.10;;;14.10;98.60;;;;;;5008573;28;20030;-79
2021/07/01 04:31:22;;;;;;;4.95;4.45;;;14.10;98.60;;;;;;5003384;28;20615;-79
2021/07/01 04:33:48;;;;;;;5.97;4.65;;;14.10;98.70;;;;;;5025709;28;20396;-79
2021/07/01 04:36:14;;;;;;;7.50;5.85;;;14.10;98.60;;;;;;5010711;28;20497;-79
2021/07/01 04:38:39;;;;;;;8.60;6.20;;;14.10;98.50;;;;;;5009795;28;20100;-79
2021/07/01 04:41:05;;;;;;;6.75;5.07;;;14.00;98.50;;;;;;5006376;28;20022;-79
2021/07/01 04:43:31;;;;;;;6.78;5.20;;;14.10;98.50;;;;;;5009060;28;20029;-79
2021/07/01 04:45:56;;;;;;;8.73;5.18;;;14.10;98.60;;;;;;5007376;28;20053;-79
2021/07/01 04:48:22;;;;;;;7.45;5.68;;;14.00;98.40;;;;;;5009681;28;20038;-74
2021/07/01 04:50:47;;;;;;;;;;;14.00;98.40;;;;;;5009883;28;20030;-73
2021/07/01 04:53:12;;;;;;;7.85;6.47;;;14.00;98.50;;;;;;5006892;28;20000;-73
2021/07/01 04:55:38;;;;;;;;;;;14.10;98.40;;;;;;5007623;28;20026;-73
2021/07/01 04:58:03;;;;;;;5.07;4.57;;;14.00;98.40;;;;;;5006053;28;19910;-73
2021/07/01 05:00:29;;;;;;;11.77;6.55;;;14.10;98.40;;;;;;4998284;28;20036;-73
2021/07/01 05:02:54;;;;;;;;;;;14.10;98.40;;;;;;4996476;28;20103;-73
2021/07/01 05:05:20;;;;;;;7.38;6.07;;;14.10;98.40;;;;;;5009657;28;19929;-73
2021/07/01 05:07:46;;;;;;;;;;;14.00;98.40;;;;;;5007541;28;20513;-73
2021/07/01 05:10:14;;;;;;;8.23;4.35;;;14.00;98.40;;;;;;5007201;28;19944;-73
2021/07/01 05:12:39;;;;;;;8.82;5.25;;;14.10;98.40;;;;;;5039825;28;20041;-73
2021/07/01 05:15:05;;;;;;;5.35;4.72;;;14.10;98.30;;;;;;5022511;28;20057;-75
2021/07/01 05:17:33;;;;;;;6.57;5.40;;;14.10;98.20;;;;;;5026883;28;20035;-75
2021/07/01 05:19:59;;;;;;;6.22;5.28;;;14.10;98.20;;;;;;5027802;28;20025;-76
2021/07/01 05:22:24;;;;;;;8.10;5.68;;;14.00;98.30;;;;;;5027803;28;20036;-76
2021/07/01 05:24:50;;;;;;;;;;;14.00;98.30;;;;;;5030561;28;20029;-76
2021/07/01 05:27:15;;;;;;;7.40;5.53;;;14.10;98.40;;;;;;5027676;28;20268;-76
2021/07/01 05:29:41;;;;;;;9.02;5.57;;;14.10;98.30;;;;;;5026397;28;20034;-75
2021/07/01 05:32:06;;;;;;;;;;;14.10;98.30;;;;;;5028059;28;20488;-76
2021/07/01 05:34:32;;;;;;;7.22;5.43;;;14.10;98.30;;;;;;5025975;28;19913;-74
2021/07/01 05:36:57;;;;;;;;;;;14.20;98.50;;;;;;5025513;28;20051;-74
2021/07/01 05:39:23;;;;;;;9.63;6.25;;;14.20;98.10;;;;;;5026531;28;19916;-75
2021/07/01 05:41:48;;;;;;;10.55;5.82;;;14.20;98.10;;;;;;5028422;28;20036;-74
2021/07/01 05:44:14;;;;;;;;;;;14.10;98.20;;;;;;5027644;28;20041;-74
2021/07/01 05:46:39;;;;;;;10.38;6.25;;;14.10;98.20;;;;;;5027092;28;20016;-75
2021/07/01 05:49:05;;;;;;;;;;;14.10;98.30;;;;;;5025863;28;20052;-75
2021/07/01 05:51:33;;;;;;;6.38;4.85;;;14.10;98.30;;;;;;5026134;28;19912;-75
2021/07/01 05:54:10;;;;;;;8.63;5.88;;;14.10;98.40;;;;;;5027652;28;20022;-75
2021/07/01 05:56:38;;;;;;;7.65;5.07;;;14.10;98.30;;;;;;5029590;28;20032;-74
2021/07/01 05:59:06;;;;;;;8.70;5.57;;;14.10;98.30;;;;;;5039885;28;20030;-74
2021/07/01 06:01:32;;;;;;;5.50;4.97;;;14.10;98.20;;;;;;5026246;28;20185;-74
2021/07/01 06:03:57;;;;;;;5.95;4.68;;;14.10;98.40;;;;;;5034483;28;20375;-74
2021/07/01 06:06:23;;;;;;;;;;;14.10;98.40;;;;;;5026086;28;20079;-74
2021/07/01 06:08:49;;;;;;;6.05;4.82;;;14.10;98.50;;;;;;5025714;28;19956;-74
2021/07/01 06:11:16;;;;;;;6.10;4.43;;;14.20;98.30;;;;;;5025826;28;20029;-74
2021/07/01 06:13:43;;;;;;;8.07;5.47;;;14.20;98.40;;;;;;5026568;28;20053;-74
2021/07/01 06:16:13;;;;;;;6.95;5.07;;;14.10;98.40;;;;;;5025047;28;20045;-74
2021/07/01 06:18:40;;;;;;;8.98;4.72;;;14.20;98.50;;;;;;5022307;28;20027;-75
2021/07/01 06:21:06;;;;;;;8.98;5.43;;;14.20;98.40;;;;;;5024287;28;20052;-75
2021/07/01 06:23:32;;;;;;;8.05;4.70;;;14.30;98.50;;;;;;5021310;28;20018;-75
2021/07/01 06:25:59;;;;;;;;;;;14.30;98.50;;;;;;5026434;28;20459;-75
2021/07/01 06:28:26;;;;;;;6.40;4.00;;;14.40;98.40;;;;;;5027432;28;19913;-75
2021/07/01 06:30:52;;;;;;;5.95;3.70;;;14.50;98.40;;;;;;5025153;28;20037;-75
2021/07/01 06:33:19;;;;;;;4.88;3.58;;;14.50;98.40;;;;;;5021626;28;20051;-75
2021/07/01 06:35:50;;;;;;;6.93;4.80;;;14.60;98.30;;;;;;5024962;28;20034;-76
2021/07/01 06:38:18;;;;;;;4.13;3.70;;;14.60;98.10;;;;;;5026406;28;20052;-76
2021/07/01 06:40:47;;;;;;;4.57;3.97;;;14.70;98.20;;;;;;5025589;28;20025;-76
2021/07/01 06:43:14;;;;;;;4.05;2.55;;;14.80;98.10;;;;;;5024697;28;20112;-77
2021/07/01 06:45:41;;;;;;;6.32;3.40;;;14.80;98.20;;;;;;5023096;28;20451;-76
2021/07/01 06:48:10;;;;;;;7.13;3.50;;;14.90;98.30;;;;;;5024111;28;20022;-77
2021/07/01 06:50:36;;;;;;;3.47;2.97;;;14.90;98.50;;;;;;5024410;28;20014;-76
2021/07/01 06:53:02;;;;;;;3.55;3.13;;;15.00;98.00;;;;;;5024813;28;20057;-77
2021/07/01 06:55:28;;;;;;;8.38;3.63;;;15.00;97.80;;;;;;5025337;28;20065;-77
2021/07/01 06:57:54;;;;;;;;;;;15.00;97.90;;;;;;5027687;28;20026;-77
2021/07/01 07:00:21;;;;;;;10.82;2.92;;;15.00;97.90;;;;;;5022928;28;19999;-77
2021/07/01 07:02:47;;;;;;;9.15;3.30;;;15.00;97.90;;;;;;5025025;28;20069;-77
2021/07/01 07:05:15;;;;;;;10.02;2.67;;;15.00;97.90;;;;;;5024606;28;21883;-77
2021/07/01 07:07:42;;;;;;;3.83;2.47;;;15.00;97.90;;;;;;5028318;28;20108;-77
2021/07/01 07:10:09;;;;;;;2.63;1.83;;;15.00;97.50;;;;;;5023573;28;20504;-77
2021/07/01 07:12:39;;;;;;;10.68;2.75;;;15.00;97.50;;;;;;5026594;28;20052;-78
2021/07/01 07:15:07;;;;;;;6.85;2.03;;;15.10;97.60;;;;;;5025954;28;20033;-77
2021/07/01 07:17:36;;;;;;;6.18;2.10;;;15.10;97.40;;;;;;5026341;28;20116;-78
2021/07/01 07:20:03;;;;;;;2.22;1.88;;;15.10;97.50;;;;;;5024457;28;20026;-78
2021/07/01 07:22:30;;;;;;;4.05;2.03;;;15.20;97.40;;;;;;5026346;28;20119;-79
2021/07/01 07:25:01;;;;;;;3.38;1.52;;;15.20;97.40;;;;;;5024520;28;20033;-79
2021/07/01 07:27:28;;;;;;;4.18;2.20;;;15.20;97.50;;;;;;5024116;28;20510;-78
2021/07/01 07:29:54;;;;;;;5.13;1.60;;;15.20;97.60;;;;;;5023878;28;20021;-80
2021/07/01 07:32:23;;;;;;;1.40;0.82;;;15.20;97.50;;;;;;5031767;28;20128;-79
2021/07/01 07:34:49;;;;;;;4.00;1.48;;;15.20;97.40;;;;;;5035556;28;20037;-80
2021/07/01 07:37:16;;;;;;;4.43;1.67;;;15.10;97.50;;;;;;5032734;28;20064;-80
2021/07/01 07:39:42;;;;;;;4.28;1.35;;;15.10;97.40;;;;;;5033207;28;20484;-80
2021/07/01 07:42:08;;;;;;;4.10;1.48;;;15.00;97.50;;;;;;5033864;28;20040;-78
2021/07/01 07:44:35;;;;;;;11.15;1.38;;;15.00;97.60;;;;;;5032374;28;20037;-78
2021/07/01 07:47:02;;;;;;;2.28;1.25;;;14.90;97.60;;;;;;5032313;28;20029;-78
2021/07/01 07:49:28;;;;;;;4.20;2.42;;;14.90;97.80;;;;;;5033731;28;20017;-78
2021/07/01 07:51:54;;;;;;;3.95;1.30;;;14.90;97.90;;;;;;5032088;28;20025;-78
2021/07/01 07:54:24;;;;;;;8.45;2.97;;;14.80;97.80;;;;;;5031364;28;20032;-78
2021/07/01 07:56:53;;;;;;;9.05;2.58;;;14.80;97.90;;;;;;5032528;28;20036;-78
2021/07/01 07:59:21;;;;;;;5.13;2.22;;;14.80;98.00;;;;;;5032217;28;20491;-77
2021/07/01 08:01:49;;;;;;;1.67;0.95;;;14.90;98.00;;;;;;5031175;28;20037;-80
2021/07/01 08:04:17;;;;;;;3.33;1.23;;;14.90;97.80;;;;;;5031357;28;20053;-79
2021/07/01 08:06:46;;;;;;;4.53;1.20;;;14.90;97.80;;;;;;5034209;28;20021;-79
2021/07/01 08:09:13;;;;;;;1.10;0.52;;;14.90;97.80;;;;;;5031891;28;20057;-78
2021/07/01 08:11:41;;;;;;;7.03;1.63;;;14.90;97.80;;;;;;5031256;28;20029;-79
2021/07/01 08:14:07;;;;;;;3.10;1.48;;;14.90;97.80;;;;;;5030993;28;20125;-77
2021/07/01 08:16:34;;;;;;;2.40;0.77;;;14.90;97.80;;;;;;5033518;28;20116;-79
2021/07/01 08:19:00;;;;;;;7.80;1.35;;;14.90;97.70;;;;;;5031480;28;20038;-75
2021/07/01 08:21:26;;;;;;;2.17;0.82;;;14.90;97.70;;;;;;5029229;28;20033;-75
2021/07/01 08:23:53;;;;;;;2.25;0.80;;;15.00;97.80;;;;;;5032564;28;20036;-78
2021/07/01 08:26:18;;;;;;;2.20;0.50;;;15.00;97.80;;;;;;5046474;28;20036;-78
2021/07/01 08:28:44;;;;;;;3.80;1.00;;;15.00;97.80;;;;;;5025977;28;20021;-78
2021/07/01 08:31:19;;;;;;;3.92;1.08;;;15.00;97.80;;;;;;5033513;28;20025;-78
2021/07/01 08:33:47;;;;;;;5.50;1.42;;;15.00;97.80;;;;;;5030455;28;20113;-77
2021/07/01 08:36:19;;;;;;;4.47;1.08;;;15.00;97.90;;;;;;5033234;28;20496;-77
2021/07/01 08:38:44;;;;;;;2.05;1.15;;;15.00;97.90;;;;;;5029374;28;20029;-77
2021/07/01 08:41:19;;;;;;;3.35;1.20;;;15.00;97.90;;;;;;5028526;28;20377;-76
2021/07/01 08:43:56;;;;;;;2.53;1.58;;;15.00;97.90;;;;;;5032037;28;20053;-76
2021/07/01 08:46:27;;;;;;;2.92;0.95;;;15.10;98.00;;;;;;5029143;28;20041;-76
2021/07/01 08:49:07;;;;;;;1.95;1.20;;;15.10;97.90;;;;;;5028782;28;20025;-76
2021/07/01 08:51:43;;;;;;;4.63;1.10;;;15.10;98.00;;;;;;5030535;28;20392;-77
2021/07/01 08:54:29;;;;;;;5.10;1.00;;;15.10;98.00;;;;;;5030900;28;20086;-78
2021/07/01 08:56:55;;;;;;;1.53;1.33;;;15.10;98.10;;;;;;5025935;28;20053;-78
2021/07/01 08:59:23;;;;;;;1.30;1.05;;;15.20;98.10;;;;;;5027965;28;20047;-76
2021/07/01 09:02:01;;;;;;;2.47;1.08;;;15.20;98.10;;;;;;5027943;28;20542;-76
2021/07/01 09:04:34;;;;;;;2.40;1.00;;;15.20;98.00;;;;;;5029105;28;20065;-76
2021/07/01 09:07:04;;;;;;;2.88;0.90;;;15.20;98.00;;;;;;5029332;28;20025;-77
2021/07/01 09:09:36;;;;;;;1.52;1.10;;;15.20;98.10;;;;;;5028104;28;20531;-77
2021/07/01 09:12:07;;;;;;;1.42;0.98;;;15.30;98.00;;;;;;5028843;28;20025;-77
2021/07/01 09:14:36;;;;;;;2.55;1.52;;;15.30;98.00;;;;;;5024852;28;20710;-77
2021/07/01 09:17:07;;;;;;;1.98;1.15;;;15.30;98.00;;;;;;5026814;28;20033;-76
2021/07/01 09:19:33;;;;;;;1.77;1.10;;;15.40;98.10;;;;;;5027368;28;20021;-76
2021/07/01 09:22:00;;;;;;;2.30;2.05;;;15.40;98.00;;;;;;5024601;28;20480;-76
2021/07/01 09:24:27;;;;;;;1.70;1.00;;;15.40;98.00;;;;;;5022465;28;20026;-76
2021/07/01 09:26:56;;;;;;;2.40;1.00;;;15.40;97.80;;;;;;5028765;28;20502;-76
2021/07/01 09:29:23;;;;;;;2.45;1.60;;;15.40;97.80;;;;;;5030394;28;20029;-75
2021/07/01 09:31:49;;;;;;;1.52;1.20;;;15.40;97.90;;;;;;5027689;28;20660;-75
2021/07/01 09:34:17;;;;;;;3.10;2.20;;;15.40;98.00;;;;;;5029070;28;20026;-75
2021/07/01 09:36:42;;;;;;;13.40;8.27;;;15.40;98.10;;;;;;5027386;28;20602;-75
2021/07/01 09:39:08;;;;;;;9.00;6.13;;;15.40;98.10;;;;;;5025083;28;20101;-75
2021/07/01 09:41:33;;;;;;;2.47;1.70;;;15.50;98.10;;;;;;5022777;28;20435;-78
2021/07/01 09:44:01;;;;;;;2.05;1.67;;;15.60;97.90;;;;;;5028983;28;20068;-77
2021/07/01 09:46:30;;;;;;;3.47;1.58;;;15.60;98.00;;;;;;5027213;28;20444;-77
2021/07/01 09:48:59;;;;;;;4.60;1.95;;;15.60;98.00;;;;;;5027716;28;20034;-76
2021/07/01 09:51:26;;;;;;;2.67;1.55;;;15.60;98.10;;;;;;5029898;28;20029;-75
2021/07/01 09:53:53;;;;;;;3.08;1.35;;;15.60;98.00;;;;;;5028750;28;20032;-75
2021/07/01 09:56:41;;;;;;;2.00;1.30;;;15.70;98.00;;;;;;5023619;28;20044;-75
2021/07/01 09:59:18;;;;;;;5.05;1.67;;;15.70;98.10;;;;;;5024894;28;20037;-73
2021/07/01 10:01:43;;;;;;;1.73;1.27;;;15.70;98.10;;;;;;5028455;28;20079;-74
2021/07/01 10:04:09;;;;;;;2.33;1.65;;;15.70;98.00;;;;;;5027947;28;20033;-75
2021/07/01 10:06:35;;;;;;;1.45;1.35;;;15.70;97.90;;;;;;5027808;28;20033;-75
2021/07/01 10:09:02;;;;;;;1.25;1.00;;;15.80;98.00;;;;;;5026821;28;20079;-74
2021/07/01 10:11:41;;;;;;;1.67;1.40;;;15.80;98.00;;;;;;5025886;28;20021;-75
2021/07/01 10:14:09;;;;;;;4.65;1.65;;;15.80;98.20;;;;;;5028555;28;20053;-74
2021/07/01 10:16:36;;;;;;;2.75;1.08;;;15.80;98.00;;;;;;5027624;28;20025;-74
2021/07/01 10:19:04;;;;;;;3.55;1.27;;;15.90;98.00;;;;;;5021425;28;20040;-75
2021/07/01 10:21:31;;;;;;;3.70;1.30;;;15.90;98.00;;;;;;5024318;28;20064;-75
2021/07/01 10:24:15;;;;;;;1.58;1.40;;;15.90;97.90;;;;;;5026302;28;20036;-74
2021/07/01 10:26:44;;;;;;;3.42;1.35;;;15.90;97.90;;;;;;5041742;28;20029;-75
2021/07/01 10:29:10;;;;;;;3.30;1.15;;;15.90;97.90;;;;;;5024340;28;20026;-74
2021/07/01 10:31:56;;;;;;;4.65;1.38;;;16.00;98.10;;;;;;5025317;28;20037;-74
2021/07/01 10:34:26;;;;;;;7.28;1.10;;;16.00;97.90;;;;;;5026759;28;20075;-74
2021/07/01 10:37:26;;;;;;;2.38;0.82;;;16.00;97.50;;;;;;5024930;28;20026;-74
2021/07/01 10:39:52;;;;;;;1.98;0.80;;;16.00;97.70;;;;;;4996424;28;20504;-74
2021/07/01 10:42:18;;;;;;;5.15;1.38;;;16.00;97.80;;;;;;5028698;28;20032;-74
2021/07/01 10:44:45;;;;;;;2.20;1.38;;;16.00;97.80;;;;;;5029662;28;20029;-75
2021/07/01 10:47:31;;;;;;;2.63;0.85;;;16.10;97.70;;;;;;5032237;28;20021;-75
2021/07/01 10:49:58;;;;;;;4.43;1.52;;;16.10;97.60;;;;;;5028269;28;20037;-75
2021/07/01 10:52:35;;;;;;;1.63;0.75;;;16.10;97.70;;;;;;5023222;28;20543;-74
2021/07/01 10:55:01;;;;;;;1.38;0.80;;;16.10;97.70;;;;;;5023409;28;20036;-75
2021/07/01 10:57:29;;;;;;;2.03;0.70;;;16.10;97.50;;;;;;5025784;28;20029;-75
2021/07/01 10:59:57;;;;;;;0.88;0.63;;;16.20;97.50;;;;;;5024356;28;20393;-75
2021/07/01 11:02:29;;;;;;;3.53;0.60;;;16.20;97.40;;;;;;5024368;28;20051;-75
2021/07/01 11:04:57;;;;;;;2.45;0.90;;;16.20;97.40;;;;;;5024287;28;20060;-75
2021/07/01 11:07:24;;;;;;;3.42;0.75;;;16.20;97.20;;;;;;5022869;28;20597;-75
2021/07/01 11:09:53;;;;;;;3.28;1.00;;;16.20;97.30;;;;;;5026641;28;20060;-76
2021/07/01 11:12:21;;;;;;;1.52;0.60;;;16.20;97.20;;;;;;5027052;28;20121;-75
2021/07/01 11:14:49;;;;;;;1.33;0.82;;;16.30;97.20;;;;;;5024456;28;20110;-75
2021/07/01 11:17:16;;;;;;;1.25;0.88;;;16.30;97.20;;;;;;5025200;28;20037;-75
2021/07/01 11:19:44;;;;;;;1.30;0.73;;;16.30;97.20;;;;;;5027392;28;20106;-76
2021/07/01 11:22:10;;;;;;;1.35;1.13;;;16.40;97.30;;;;;;5020476;28;20026;-76
2021/07/01 11:24:42;;;;;;;4.70;1.02;;;16.40;97.30;;;;;;5024286;28;20049;-76
2021/07/01 11:27:08;;;;;;;2.65;0.93;;;16.40;97.20;;;;;;5026324;28;20100;-75
2021/07/01 11:29:45;;;;;;;4.25;1.05;;;16.50;97.00;;;;;;5025659;28;20033;-75
2021/07/01 11:32:16;;;;;;;2.08;0.60;;;16.50;97.00;;;;;;5026204;28;20152;-74
2021/07/01 11:34:44;;;;;;;1.15;0.68;;;16.60;96.90;;;;;;5025532;28;20114;-74
2021/07/01 11:37:11;;;;;;;1.25;1.15;;;16.60;96.90;;;;;;5024238;28;20124;-74
2021/07/01 11:39:36;;;;;;;4.20;0.80;;;16.60;96.90;;;;;;5025094;28;20504;-74
2021/07/01 11:42:04;;;;;;;1.15;0.55;;;16.60;96.90;;;;;;5024645;28;20033;-74
2021/07/01 11:44:34;;;;;;;0.75;0.57;;;16.70;97.00;;;;;;5024526;28;20071;-75
2021/07/01 11:47:03;;;;;;;3.10;0.52;;;16.60;96.80;;;;;;5026231;28;20094;-75
2021/07/01 11:49:33;;;;;;;2.03;0.63;;;16.60;97.00;;;;;;5026371;28;20025;-75
2021/07/01 11:51:59;;;;;;;0.77;0.70;;;16.60;97.10;;;;;;5025454;28;20029;-74
2021/07/01 11:54:26;;;;;;;1.45;0.70;;;16.70;97.10;;;;;;5022031;28;20025;-74
2021/07/01 11:56:59;;;;;;;0.45;0.40;;;16.60;97.00;;;;;;5025948;28;20173;-76
2021/07/01 11:59:28;;;;;;;0.38;0.30;;;16.60;96.90;;;;;;5024335;28;20037;-75
2021/07/01 12:01:55;;;;;;;1.52;0.77;;;16.50;97.00;;;;;;5026668;28;20026;-75
2021/07/01 12:04:26;;;;;;;1.40;0.77;;;16.50;97.20;;;;;;5024754;28;20033;-75
2021/07/01 12:07:15;;;;;;;1.00;0.47;;;16.50;97.20;;;;;;5026682;28;20030;-76
2021/07/01 12:09:42;;;;;;;2.05;0.73;;;16.50;97.10;;;;;;5026878;28;20648;-76
2021/07/01 12:12:12;;;;;;;0.63;0.50;;;16.50;97.30;;;;;;5024436;28;20083;-76
2021/07/01 12:14:43;;;;;;;1.92;0.40;;;16.60;97.10;;;;;;5023529;28;20034;-75
2021/07/01 12:17:08;;;;;;;2.85;0.50;;;16.50;97.20;;;;;;5027243;28;20505;-74
2021/07/01 12:19:58;;;;;;;1.10;0.70;;;16.50;97.30;;;;;;5029304;28;20488;-75
2021/07/01 12:22:42;;;;;;;1.98;0.70;;;16.50;97.40;;;;;;5029503;28;20054;-74
2021/07/01 12:25:20;;;;;;;2.38;1.38;;;16.50;97.50;;;;;;5028408;28;20030;-76
2021/07/01 12:28:09;;;;;;;1.00;0.80;;;16.50;97.30;;;;;;5031209;28;20018;-75
2021/07/01 12:30:52;;;;;;;3.70;0.93;;;16.50;97.20;;;;;;5028984;28;20100;-75
2021/07/01 12:33:53;;;;;;;4.22;1.50;;;16.40;97.30;;;;;;5028809;28;20365;-81
2021/07/01 12:36:27;;;;;;;2.10;1.13;;;16.40;97.40;;;;;;5028671;28;20117;-82
2021/07/01 12:41:32;;;;;;;1.17;0.80;;;16.40;97.50;;;;;;5028762;28;20133;-79
2021/07/01 12:44:00;;;;;;;1.92;0.93;;;16.40;97.40;;;;;;5031408;28;20036;-82
2021/07/01 12:46:41;;;;;;;0.50;0.47;;;16.30;97.40;;;;;;5027268;28;20103;-83
2021/07/01 12:49:07;;;;;;;2.67;0.50;;;16.30;97.50;;;;;;5029169;28;20022;-82
2021/07/01 12:51:49;;;;;;;2.40;0.70;;;16.30;97.50;;;;;;5027770;28;20018;-82
2021/07/01 12:54:37;;;;;;;3.25;1.58;;;16.30;97.40;;;;;;5029078;28;20396;-82